Observations for CHRISTCHURCH IN, New Zealand (NZCH)

NZCH 202000Z AUTO 05009KT 9999 BKN007/// 18/15 Q1011 BECMG FEW050   
NZCH 201930Z AUTO 04007KT 9999 OVC008/// 17/15 Q1012 NOSIG  
NZCH 201900Z AUTO 04007KT 9999 BKN008/// 17/15 Q1012 NOSIG  
NZCH 201830Z AUTO 04006KT 9999 OVC008/// 17/15 Q1012 NOSIG  
NZCH 201800Z AUTO 04005KT 9999 OVC009/// 17/15 Q1012 NOSIG  
NZCH 201730Z AUTO 02005KT 9999 OVC010/// 17/15 Q1012 NOSIG  
NZCH 201700Z AUTO 04005KT 9999 OVC011/// 17/15 Q1013 NOSIG  
NZCH 201630Z AUTO 04005KT 010V080 9999 OVC011/// 17/15 Q1013 NOSIG  
NZCH 201600Z AUTO 05003KT 9999 OVC012/// 17/15 Q1013 BECMG BKN008   
NZCH 201530Z AUTO 02003KT 9999 OVC012/// 17/15 Q1014 BECMG BKN008   
NZCH 201500Z AUTO 03001KT 9999 BKN012/// 17/15 Q1014 BECMG BKN008   
NZCH 201430Z AUTO 07003KT 9999 BKN013/// 17/15 Q1014 BECMG FM1500 BKN008
NZCH 201400Z AUTO 07004KT 040V100 9999 OVC013/// 17/15 Q1014 NOSIG  
NZCH 201330Z AUTO 06004KT 9999 OVC014/// 17/15 Q1014 TEMPO BKN020   
NZCH 201300Z AUTO 07006KT 9999 OVC015/// 17/15 Q1015 TEMPO BKN012   
NZCH 201230Z AUTO 06006KT 9999 OVC016/// 17/15 Q1015 NOSIG  
NZCH 201200Z AUTO 07007KT 9999 OVC018/// 17/14 Q1015 NOSIG  
NZCH 201130Z AUTO 08007KT 9999 OVC019/// 18/14 Q1015 NOSIG  
NZCH 201100Z AUTO 06006KT 9999 OVC019/// 18/14 Q1015 NOSIG  
NZCH 201030Z AUTO 06006KT 9999 OVC021/// 17/13 Q1015 NOSIG  
NZCH 201000Z AUTO 07007KT 9999 OVC021/// 17/13 Q1015 NOSIG  
NZCH 200930Z AUTO 07007KT 9999 OVC022/// 17/12 Q1015 NOSIG  
NZCH 200900Z AUTO 08009KT 050V110 9999 SCT024/// 17/12 Q1015 NOSIG  
NZCH 200830Z AUTO 08010KT 9999 NCD 17/11 Q1015 NOSIG
NZCH 200800Z AUTO 08011KT 9999 NCD 17/11 Q1014 NOSIG
NZCH 200730Z AUTO 09013KT 9999 NCD 18/11 Q1014 NOSIG
NZCH 200700Z AUTO 09016KT 9999 NCD 18/11 Q1014 NOSIG
NZCH 200630Z AUTO 08015KT 050V110 9999 NCD 19/11 Q1013 NOSIG
NZCH 200600Z AUTO 09017KT 9999 NCD 19/11 Q1013 NOSIG
NZCH 200530Z AUTO 08017KT 9999 NCD 20/11 Q1013 NOSIG
NZCH 200500Z AUTO 07019KT 9999 NCD 21/11 Q1013 NOSIG
NZCH 200430Z AUTO 08018KT 9999 NCD 22/11 Q1012 NOSIG
NZCH 200400Z AUTO 08021KT 9999 NCD 21/11 Q1012 NOSIG
NZCH 200330Z AUTO 09018KT 9999 NCD 22/11 Q1011 NOSIG
NZCH 200300Z AUTO 08017KT 9999 NCD 23/12 Q1011 NOSIG
NZCH 200230Z AUTO 09016KT 9999 NCD 23/13 Q1011 NOSIG
NZCH 200200Z AUTO 08014KT 9999 NCD 24/14 Q1011 NOSIG
NZCH 200130Z AUTO 07014KT 040V100 9999 NCD 23/14 Q1011 NOSIG
NZCH 200100Z AUTO 08012KT 030V110 9999 FEW046/// 24/14 Q1010 NOSIG  
NZCH 200030Z AUTO 09006KT 360V170 9999 FEW047/// 25/15 Q1010 BECMG FM0100 08010KT   
NZCH 200000Z AUTO 24008KT 170V320 9999 NCD 25/13 Q1010 BECMG FM0100 08010KT 
NZCH 192330Z AUTO 23009KT 180V270 9999 NCD 26/13 Q1009 BECMG FM0100 08010KT 
NZCH 192300Z AUTO 23008KT 180V280 9999 NCD 26/13 Q1009 BECMG FM0100 08010KT 
NZCH 192230Z AUTO 22013KT 9999 NCD 26/13 Q1008 NOSIG
NZCH 192200Z AUTO 23011KT 190V290 9999 NCD 27/13 Q1008 NOSIG
NZCH 192130Z AUTO 02002KT 9999 NCD 26/12 Q1007 BECMG 22010KT
NZCH 192100Z AUTO 02002KT 9999 NCD 24/12 Q1007 BECMG 22010KT
NZCH 192030Z AUTO 35003KT 9999 NCD 22/11 Q1006 NOSIG
NZCH 192000Z AUTO 30003KT 9999 NCD 22/11 Q1006 NOSIG
NZCH 191930Z AUTO 34004KT 310V020 9999 NCD 20/11 Q1006 NOSIG